createdAt,value
2023-01-17T00:02:12.951Z,96234.40
2023-01-17T00:05:28.503Z,96252.40
2023-01-17T00:08:48.739Z,96259.60
2023-01-17T00:11:47.057Z,96252.80
2023-01-17T00:14:44.829Z,96248.40
2023-01-17T00:17:42.261Z,96266.20
2023-01-17T00:20:57.592Z,96277.00
2023-01-17T00:24:12.616Z,96277.60
2023-01-17T00:27:12.348Z,96271.40
2023-01-17T00:30:08.655Z,96273.60
2023-01-17T00:33:05.232Z,96278.20
2023-01-17T00:36:01.574Z,96295.60
2023-01-17T00:38:58.098Z,96294.20
2023-01-17T00:41:54.384Z,96294.20
2023-01-17T00:45:10.026Z,96289.40
2023-01-17T00:48:25.615Z,96291.40
2023-01-17T00:51:40.773Z,96295.60
2023-01-17T00:54:56.384Z,96295.20
2023-01-17T00:58:11.463Z,96300.20
2023-01-17T01:01:27.105Z,96298.60
2023-01-17T01:04:42.732Z,96290.20
2023-01-17T01:07:57.765Z,96287.80
2023-01-17T01:11:13.514Z,96295.40
2023-01-17T01:14:28.763Z,96295.40
2023-01-17T01:17:44.118Z,96295.60
2023-01-17T01:20:59.502Z,96289.40
2023-01-17T01:24:14.582Z,96285.20
2023-01-17T01:27:29.795Z,96281.60
2023-01-17T01:30:45.023Z,96282.00
2023-01-17T01:33:42.784Z,96284.60
2023-01-17T01:36:40.204Z,96298.00
2023-01-17T01:39:37.905Z,96296.40
2023-01-17T01:42:35.555Z,96295.60
2023-01-17T01:45:33.487Z,96293.20
2023-01-17T01:48:31.234Z,96294.60
2023-01-17T01:51:28.665Z,96289.40
2023-01-17T01:54:26.267Z,96283.40
2023-01-17T01:57:23.696Z,96277.80
2023-01-17T02:00:21.845Z,96282.40
2023-01-17T02:03:19.649Z,96279.40
2023-01-17T02:06:17.125Z,96276.40
2023-01-17T02:09:14.857Z,96278.40
2023-01-17T02:12:12.312Z,96268.80
2023-01-17T02:15:10.001Z,96268.60
2023-01-17T02:18:07.424Z,96260.60
2023-01-17T02:21:05.056Z,96261.40
2023-01-17T02:24:02.476Z,96265.00
2023-01-17T02:27:00.243Z,96267.40
2023-01-17T02:29:57.908Z,96269.60
2023-01-17T02:32:55.399Z,96263.40
2023-01-17T02:35:53.137Z,96265.60
2023-01-17T02:38:50.815Z,96269.60
2023-01-17T02:41:48.459Z,96281.40
2023-01-17T02:44:45.885Z,96274.00
2023-01-17T02:47:43.595Z,96273.00
2023-01-17T02:50:41.366Z,96278.60
2023-01-17T02:53:38.800Z,96271.60
2023-01-17T02:56:36.511Z,96278.20
2023-01-17T02:59:33.965Z,96280.00
2023-01-17T03:02:31.615Z,96278.20
2023-01-17T03:05:29.073Z,96273.60
2023-01-17T03:08:26.853Z,96274.60
2023-01-17T03:11:24.286Z,96284.60
2023-01-17T03:14:21.914Z,96281.60
2023-01-17T03:17:19.355Z,96286.60
2023-01-17T03:20:17.062Z,96285.00
2023-01-17T03:23:14.850Z,96288.20
2023-01-17T03:26:12.526Z,96283.60
2023-01-17T03:29:10.327Z,96290.00
2023-01-17T03:32:07.770Z,96294.40
2023-01-17T03:35:05.513Z,96292.60
2023-01-17T03:38:02.952Z,96301.40
2023-01-17T03:41:00.728Z,96304.20
2023-01-17T03:43:58.167Z,96312.60
2023-01-17T03:46:55.871Z,96310.80
2023-01-17T03:49:53.326Z,96309.80
2023-01-17T03:52:51.411Z,96315.00
2023-01-17T03:55:48.861Z,96312.00
2023-01-17T03:58:46.658Z,96318.20
2023-01-17T04:01:44.518Z,96317.20
2023-01-17T04:04:42.054Z,96326.20
2023-01-17T04:07:40.653Z,96318.40
2023-01-17T04:10:38.134Z,96326.80
2023-01-17T04:13:36.080Z,96328.40
2023-01-17T04:16:33.574Z,96323.60
2023-01-17T04:19:31.221Z,96328.80
2023-01-17T04:22:28.657Z,96330.00
2023-01-17T04:25:26.955Z,96329.40
2023-01-17T04:28:24.408Z,96326.00
2023-01-17T04:31:22.056Z,96324.40
2023-01-17T04:34:19.842Z,96323.60
2023-01-17T04:37:17.303Z,96325.80
2023-01-17T04:40:15.066Z,96319.60
2023-01-17T04:43:12.509Z,96317.80
2023-01-17T04:46:11.354Z,96315.00
2023-01-17T04:49:08.864Z,96319.80
2023-01-17T04:52:06.491Z,96321.00
2023-01-17T04:55:03.966Z,96321.20
2023-01-17T04:58:01.762Z,96320.60
2023-01-17T05:00:59.276Z,96322.20
2023-01-17T05:03:57.089Z,96332.40
2023-01-17T05:06:55.095Z,96331.80
2023-01-17T05:09:52.696Z,96337.20
2023-01-17T05:12:50.136Z,96337.80
2023-01-17T05:15:47.988Z,96340.20
2023-01-17T05:18:45.730Z,96344.20
2023-01-17T05:21:43.185Z,96349.00
2023-01-17T05:24:40.874Z,96348.80
2023-01-17T05:27:38.300Z,96349.00
2023-01-17T05:30:36.076Z,96353.40
2023-01-17T05:33:33.539Z,96351.40
2023-01-17T05:36:31.251Z,96353.60
2023-01-17T05:39:30.927Z,96355.80
2023-01-17T05:42:28.808Z,96360.60
2023-01-17T05:45:26.259Z,96364.20
2023-01-17T05:48:24.036Z,96365.20
2023-01-17T05:51:21.474Z,96375.60
2023-01-17T05:54:19.235Z,96380.20
2023-01-17T05:57:17.849Z,96386.80
2023-01-17T06:00:18.088Z,96392.40
2023-01-17T06:03:15.506Z,96393.20
2023-01-17T06:06:13.289Z,96397.00
2023-01-17T06:09:12.173Z,96400.40
2023-01-17T06:12:09.600Z,96406.00
2023-01-17T06:15:07.321Z,96408.20
2023-01-17T06:18:05.023Z,96402.00
2023-01-17T06:21:02.842Z,96408.40
2023-01-17T06:24:01.840Z,96410.80
2023-01-17T06:27:00.385Z,96421.40
2023-01-17T06:29:57.841Z,96428.00
2023-01-17T06:32:55.566Z,96435.00
2023-01-17T06:35:53.343Z,96434.00
2023-01-17T06:38:50.799Z,96438.80
2023-01-17T06:41:48.492Z,96440.60
2023-01-17T06:44:45.944Z,96439.60
2023-01-17T06:47:43.656Z,96445.00
2023-01-17T06:50:41.113Z,96447.20
2023-01-17T06:53:39.106Z,96454.60
2023-01-17T06:56:36.535Z,96469.00
2023-01-17T06:59:34.615Z,96464.60
2023-01-17T07:02:32.040Z,96477.20
2023-01-17T07:05:29.724Z,96468.20
2023-01-17T07:08:27.411Z,96475.00
2023-01-17T07:11:24.911Z,96487.00
2023-01-17T07:14:22.523Z,96479.00
2023-01-17T07:17:19.963Z,96475.40
2023-01-17T07:20:17.650Z,96491.20
2023-01-17T07:23:15.084Z,96503.20
2023-01-17T07:26:12.790Z,96509.20
2023-01-17T07:29:10.227Z,96508.80
2023-01-17T07:32:09.227Z,96512.60
2023-01-17T07:35:06.668Z,96514.00
2023-01-17T07:38:04.310Z,96519.00
2023-01-17T07:41:01.829Z,96516.80
2023-01-17T07:43:59.579Z,96528.00
2023-01-17T07:46:57.097Z,96534.40
2023-01-17T07:49:55.230Z,96531.60
2023-01-17T07:52:53.004Z,96525.80
2023-01-17T07:55:50.445Z,96521.00
2023-01-17T07:58:49.052Z,96521.00
2023-01-17T08:01:46.695Z,96522.00
2023-01-17T08:04:44.504Z,96525.00
2023-01-17T08:07:42.121Z,96530.20
2023-01-17T08:10:39.765Z,96528.20
2023-01-17T08:13:37.230Z,96540.40
2023-01-17T08:16:34.699Z,96533.80
2023-01-17T08:19:32.186Z,96538.40
2023-01-17T08:22:29.952Z,96537.60
2023-01-17T08:25:27.389Z,96531.00
2023-01-17T08:28:25.166Z,96525.80
2023-01-17T08:31:22.834Z,96523.60
2023-01-17T08:34:20.304Z,96525.00
2023-01-17T08:37:17.943Z,96522.20
2023-01-17T08:40:17.224Z,96522.40
2023-01-17T08:43:15.011Z,96516.80
2023-01-17T08:46:12.485Z,96513.80
2023-01-17T08:49:10.154Z,96516.80
2023-01-17T08:52:07.829Z,96516.40
2023-01-17T08:55:05.949Z,96520.60
2023-01-17T08:58:03.685Z,96524.40
2023-01-17T09:01:01.232Z,96529.40
2023-01-17T09:03:59.025Z,96537.60
2023-01-17T09:06:57.605Z,96553.20
2023-01-17T09:09:55.255Z,96568.00
2023-01-17T09:12:52.706Z,96576.00
2023-01-17T09:15:50.487Z,96581.20
2023-01-17T09:18:48.164Z,96585.80
2023-01-17T09:21:45.588Z,96580.80
2023-01-17T09:24:43.670Z,96577.80
2023-01-17T09:27:41.083Z,96588.00
2023-01-17T09:30:38.775Z,96584.80
2023-01-17T09:33:36.295Z,96594.20
2023-01-17T09:36:34.447Z,96597.40
2023-01-17T09:39:32.206Z,96592.60
2023-01-17T09:42:29.644Z,96595.00
2023-01-17T09:45:27.358Z,96597.80
2023-01-17T09:48:24.821Z,96590.00
2023-01-17T09:51:22.515Z,96579.40
2023-01-17T09:54:20.354Z,96576.60
2023-01-17T09:57:17.791Z,96574.40
2023-01-17T10:00:15.762Z,96573.00
2023-01-17T10:03:13.556Z,96564.40
2023-01-17T10:06:11.288Z,96562.20
2023-01-17T10:09:08.814Z,96557.80
2023-01-17T10:12:06.284Z,96552.40
2023-01-17T10:15:07.288Z,96544.00
2023-01-17T10:18:05.025Z,96534.80
2023-01-17T10:21:03.731Z,96524.20
2023-01-17T10:24:01.166Z,96515.40
2023-01-17T10:26:58.966Z,96508.20
2023-01-17T10:29:56.431Z,96506.40
2023-01-17T10:32:55.150Z,96505.00
2023-01-17T10:35:52.587Z,96503.40
2023-01-17T10:38:50.316Z,96500.00
2023-01-17T10:41:47.773Z,96492.00
2023-01-17T10:44:45.580Z,96488.80
2023-01-17T10:47:43.333Z,96479.40
2023-01-17T10:50:40.754Z,96479.80
2023-01-17T10:53:38.478Z,96477.00
2023-01-17T10:56:35.914Z,96464.80
2023-01-17T10:59:34.001Z,96461.20
2023-01-17T11:02:31.877Z,96451.20
2023-01-17T11:05:29.486Z,96464.00
2023-01-17T11:08:27.310Z,96463.00
2023-01-17T11:11:24.755Z,96452.40
2023-01-17T11:14:22.418Z,96449.20
2023-01-17T11:17:19.873Z,96446.80
2023-01-17T11:20:20.355Z,96445.00
2023-01-17T11:23:17.785Z,96436.60
2023-01-17T11:26:15.524Z,96426.80
2023-01-17T11:29:13.126Z,96427.00
2023-01-17T11:32:10.589Z,96418.00
2023-01-17T11:35:08.265Z,96425.40
2023-01-17T11:38:05.767Z,96420.40
2023-01-17T11:41:17.366Z,96432.80
2023-01-17T11:44:15.061Z,96428.80
2023-01-17T11:47:12.536Z,96427.40
2023-01-17T11:50:10.363Z,96432.80
2023-01-17T11:53:07.792Z,96429.00
2023-01-17T11:56:05.608Z,96430.40
2023-01-17T11:59:04.284Z,96426.00
2023-01-17T12:02:02.156Z,96429.40
2023-01-17T12:04:59.642Z,96424.60
2023-01-17T12:07:57.371Z,96420.80
2023-01-17T12:10:55.120Z,96416.40
2023-01-17T12:14:01.783Z,96413.60
2023-01-17T12:16:59.595Z,96415.20
2023-01-17T12:20:00.989Z,96413.40
2023-01-17T12:22:58.794Z,96410.00
2023-01-17T12:25:56.243Z,96398.00
2023-01-17T12:28:53.856Z,96393.40
2023-01-17T12:31:51.288Z,96382.40
2023-01-17T12:34:51.074Z,96372.00
2023-01-17T12:38:00.288Z,96360.20
2023-01-17T12:41:01.809Z,96349.80
2023-01-17T12:43:59.548Z,96341.40
2023-01-17T12:46:57.004Z,96338.60
2023-01-17T12:49:54.780Z,96333.20
2023-01-17T12:52:52.444Z,96339.20
2023-01-17T12:55:49.950Z,96348.40
2023-01-17T12:58:47.663Z,96347.40
2023-01-17T13:01:45.283Z,96354.60
2023-01-17T13:04:57.769Z,96359.60
2023-01-17T13:07:56.329Z,96367.40
2023-01-17T13:10:55.076Z,96358.60
2023-01-17T13:13:53.824Z,96352.00
2023-01-17T13:16:51.306Z,96343.40
2023-01-17T13:19:49.033Z,96341.60
2023-01-17T13:22:46.471Z,96337.80
2023-01-17T13:25:44.090Z,96344.40
2023-01-17T13:28:41.733Z,96349.40
2023-01-17T13:31:39.241Z,96348.20
2023-01-17T13:34:39.407Z,96341.80
2023-01-17T13:37:36.875Z,96330.60
2023-01-17T13:40:34.635Z,96332.00
2023-01-17T13:43:32.316Z,96334.40
2023-01-17T13:46:29.742Z,96325.40
2023-01-17T13:49:27.526Z,96335.20
2023-01-17T13:52:25.100Z,96339.20
2023-01-17T13:55:22.865Z,96343.80
2023-01-17T13:58:20.310Z,96343.20
2023-01-17T14:01:18.046Z,96353.60
2023-01-17T14:04:15.657Z,96342.00
2023-01-17T14:07:13.526Z,96329.60
2023-01-17T14:10:10.984Z,96320.80
2023-01-17T14:13:08.851Z,96318.00
2023-01-17T14:16:06.320Z,96309.20
2023-01-17T14:19:04.593Z,96297.20
2023-01-17T14:22:03.255Z,96294.80
2023-01-17T14:25:00.950Z,96292.00
2023-01-17T14:27:58.950Z,96284.40
2023-01-17T14:30:56.519Z,96276.20
2023-01-17T14:33:54.653Z,96264.00
2023-01-17T14:36:52.081Z,96253.80
2023-01-17T14:39:49.918Z,96248.80
2023-01-17T14:42:47.378Z,96238.60
2023-01-17T14:45:44.927Z,96242.40
2023-01-17T14:48:42.878Z,96248.00
2023-01-17T14:51:40.439Z,96246.40
2023-01-17T14:54:38.196Z,96245.40
2023-01-17T14:57:35.665Z,96248.60
2023-01-17T15:00:35.376Z,96242.00
2023-01-17T15:03:32.817Z,96237.20
2023-01-17T15:06:30.712Z,96235.80
2023-01-17T15:09:28.410Z,96219.00
2023-01-17T15:12:25.939Z,96217.80
2023-01-17T15:15:23.805Z,96215.00
2023-01-17T15:18:21.237Z,96220.00
2023-01-17T15:21:19.753Z,96218.80
2023-01-17T15:24:17.323Z,96212.80
2023-01-17T15:27:16.797Z,96204.40
2023-01-17T15:30:14.496Z,96203.00
2023-01-17T15:33:12.141Z,96201.00
2023-01-17T15:36:09.801Z,96203.40
2023-01-17T15:39:07.253Z,96207.80
2023-01-17T15:42:05.055Z,96210.00
2023-01-17T15:45:02.501Z,96204.80
2023-01-17T15:48:00.710Z,96201.80
2023-01-17T15:50:58.127Z,96209.40
2023-01-17T15:53:55.839Z,96204.40
2023-01-17T15:56:53.545Z,96202.80
2023-01-17T15:59:51.116Z,96201.00
2023-01-17T16:02:50.392Z,96214.20
2023-01-17T16:05:47.863Z,96216.80
2023-01-17T16:08:45.599Z,96217.00
2023-01-17T16:11:44.049Z,96214.20
2023-01-17T16:14:59.564Z,96207.40
2023-01-17T16:17:59.128Z,96207.60
2023-01-17T16:20:56.761Z,96202.00
2023-01-17T16:23:54.464Z,96216.80
2023-01-17T16:26:51.904Z,96221.20
2023-01-17T16:29:49.725Z,96219.80
2023-01-17T16:32:48.544Z,96215.00
2023-01-17T16:35:46.622Z,96210.60
2023-01-17T16:38:44.112Z,96212.00
2023-01-17T16:41:41.917Z,96216.40
2023-01-17T16:44:40.993Z,96214.20
2023-01-17T16:47:38.419Z,96216.00
2023-01-17T16:50:36.222Z,96219.00
2023-01-17T16:53:33.651Z,96224.60
2023-01-17T16:56:31.296Z,96234.20
2023-01-17T16:59:39.661Z,96228.60
2023-01-17T17:02:43.931Z,96230.40
2023-01-17T17:05:41.381Z,96233.60
2023-01-17T17:08:40.159Z,96235.80
2023-01-17T17:11:38.184Z,96237.80
2023-01-17T17:14:35.906Z,96237.60
2023-01-17T17:17:33.959Z,96239.20
2023-01-17T17:20:32.232Z,96236.20
2023-01-17T17:23:30.991Z,96240.20
2023-01-17T17:26:31.416Z,96236.40
2023-01-17T17:29:29.139Z,96237.40
2023-01-17T17:32:27.756Z,96235.60
2023-01-17T17:35:25.344Z,96236.40
2023-01-17T17:38:23.131Z,96232.00
2023-01-17T17:41:21.032Z,96219.00
2023-01-17T17:44:19.781Z,96205.80
2023-01-17T17:47:18.010Z,96197.20
2023-01-17T17:50:16.114Z,96200.80
2023-01-17T17:53:13.618Z,96207.00
2023-01-17T17:56:11.875Z,96200.00
2023-01-17T17:59:10.360Z,96193.00
2023-01-17T18:02:11.142Z,96182.80
2023-01-17T18:05:09.552Z,96179.60
2023-01-17T18:08:08.068Z,96176.40
2023-01-17T18:11:06.337Z,96173.80
2023-01-17T18:14:04.031Z,96165.40
2023-01-17T18:17:02.312Z,96155.60
2023-01-17T18:20:00.769Z,96158.40
2023-01-17T18:22:58.778Z,96162.40
2023-01-17T18:25:57.429Z,96156.60
2023-01-17T18:28:55.426Z,96166.00
2023-01-17T18:31:53.526Z,96180.20
2023-01-17T18:34:51.739Z,96176.40
2023-01-17T18:37:49.720Z,96180.60
2023-01-17T18:40:47.457Z,96174.40
2023-01-17T18:43:45.854Z,96163.20
2023-01-17T18:46:44.061Z,96152.60
2023-01-17T18:49:42.013Z,96153.00
2023-01-17T18:52:40.845Z,96150.40
2023-01-17T18:55:41.377Z,96143.60
2023-01-17T18:58:40.167Z,96144.20
2023-01-17T19:01:38.350Z,96146.00
2023-01-17T19:04:39.134Z,96138.60
2023-01-17T19:07:36.760Z,96136.00
2023-01-17T19:10:35.383Z,96137.40
2023-01-17T19:13:32.913Z,96138.00
2023-01-17T19:16:31.435Z,96129.80
2023-01-17T19:19:30.239Z,96123.00
2023-01-17T19:22:28.650Z,96114.60
2023-01-17T19:25:27.416Z,96101.20
2023-01-17T19:28:26.435Z,96092.00
2023-01-17T19:31:24.683Z,96083.20
2023-01-17T19:34:23.165Z,96080.40
2023-01-17T19:37:21.654Z,96081.00
2023-01-17T19:40:21.922Z,96078.80
2023-01-17T19:43:21.010Z,96084.00
2023-01-17T19:46:20.273Z,96084.40
2023-01-17T19:49:24.115Z,96082.20
2023-01-17T19:52:25.633Z,96081.80
2023-01-17T19:55:26.112Z,96081.40
2023-01-17T19:58:24.566Z,96081.00
2023-01-17T20:01:23.452Z,96084.40
2023-01-17T20:04:22.254Z,96080.20
2023-01-17T20:07:20.760Z,96080.60
2023-01-17T20:10:19.134Z,96083.40
2023-01-17T20:13:17.173Z,96085.40
2023-01-17T20:16:16.778Z,96082.80
2023-01-17T20:19:15.787Z,96080.00
2023-01-17T20:22:14.588Z,96077.60
2023-01-17T20:25:13.182Z,96070.80
2023-01-17T20:28:12.788Z,96065.60
2023-01-17T20:31:12.831Z,96056.80
2023-01-17T20:34:12.030Z,96047.00
2023-01-17T20:37:09.975Z,96047.40
2023-01-17T20:40:09.689Z,96055.20
2023-01-17T20:43:11.075Z,96055.00
2023-01-17T20:46:09.633Z,96055.40
2023-01-17T20:49:09.068Z,96060.00
2023-01-17T20:52:06.638Z,96062.20
2023-01-17T20:55:04.550Z,96059.00
2023-01-17T20:58:03.062Z,96059.20
2023-01-17T21:01:00.933Z,96053.60
2023-01-17T21:03:58.785Z,96052.80
2023-01-17T21:06:56.887Z,96054.20
2023-01-17T21:09:55.193Z,96059.20
2023-01-17T21:12:52.858Z,96060.60
2023-01-17T21:15:50.638Z,96061.00
2023-01-17T21:18:48.409Z,96062.80
2023-01-17T21:21:46.476Z,96059.80
2023-01-17T21:24:43.963Z,96059.00
2023-01-17T21:27:41.875Z,96060.40
2023-01-17T21:30:39.382Z,96060.80
2023-01-17T21:33:37.144Z,96047.00
2023-01-17T21:36:34.648Z,96049.20
2023-01-17T21:39:32.650Z,96042.80
2023-01-17T21:42:31.312Z,96038.60
2023-01-17T21:45:32.254Z,96031.20
2023-01-17T21:48:29.822Z,96030.20
2023-01-17T21:51:47.523Z,96024.40
2023-01-17T21:55:03.123Z,96021.80
2023-01-17T21:58:29.638Z,96018.80
2023-01-17T22:01:27.453Z,96019.20
2023-01-17T22:04:25.720Z,96019.00
2023-01-17T22:07:23.477Z,96024.60
2023-01-17T22:10:21.246Z,96028.40
2023-01-17T22:13:19.011Z,96024.40
2023-01-17T22:16:16.471Z,96025.80
2023-01-17T22:19:14.227Z,96026.00
2023-01-17T22:22:12.723Z,96034.60
2023-01-17T22:25:10.467Z,96039.40
2023-01-17T22:28:08.263Z,96043.00
2023-01-17T22:31:05.750Z,96047.00
2023-01-17T22:34:03.689Z,96055.80
2023-01-17T22:37:04.069Z,96058.00
2023-01-17T22:40:05.081Z,96055.40
2023-01-17T22:43:02.544Z,96050.80
2023-01-17T22:46:00.407Z,96048.00
2023-01-17T22:48:58.152Z,96051.20
2023-01-17T22:51:56.827Z,96046.80
2023-01-17T22:54:54.522Z,96043.00
2023-01-17T22:57:54.018Z,96032.60
2023-01-17T23:00:51.806Z,96025.20
2023-01-17T23:03:49.594Z,96021.60
2023-01-17T23:06:47.423Z,96019.60
2023-01-17T23:09:45.189Z,96016.20
2023-01-17T23:12:42.641Z,96012.00
2023-01-17T23:16:09.974Z,96007.00
2023-01-17T23:19:26.109Z,96008.80
2023-01-17T23:22:23.573Z,96006.40
2023-01-17T23:25:23.589Z,96003.00
2023-01-17T23:28:21.766Z,96007.20
2023-01-17T23:31:19.460Z,96017.80
2023-01-17T23:34:17.514Z,96015.20
2023-01-17T23:37:15.375Z,96013.00
2023-01-17T23:40:13.140Z,96016.40
2023-01-17T23:43:26.063Z,96017.20
2023-01-17T23:46:24.378Z,96011.80
2023-01-17T23:49:22.046Z,96014.60
2023-01-17T23:52:19.576Z,96016.40
2023-01-17T23:55:17.040Z,96012.80
2023-01-17T23:58:14.797Z,96011.00
